createdAt,value
2023-05-20T00:02:20.308Z,17.68
2023-05-20T00:04:47.564Z,17.64
2023-05-20T00:07:14.732Z,17.59
2023-05-20T00:09:41.568Z,17.52
2023-05-20T00:12:08.450Z,17.43
2023-05-20T00:14:36.149Z,17.38
2023-05-20T00:17:03.086Z,17.35
2023-05-20T00:19:30.354Z,17.31
2023-05-20T00:21:57.744Z,17.30
2023-05-20T00:24:24.811Z,17.28
2023-05-20T00:26:51.807Z,17.18
2023-05-20T00:29:24.032Z,17.11
2023-05-20T00:31:51.084Z,17.09
2023-05-20T00:34:17.999Z,17.05
2023-05-20T00:36:45.725Z,17.03
2023-05-20T00:39:12.749Z,16.99
2023-05-20T00:41:40.284Z,16.98
2023-05-20T00:44:12.169Z,16.97
2023-05-20T00:46:39.090Z,16.98
2023-05-20T00:49:06.210Z,16.99
2023-05-20T00:51:33.488Z,16.95
2023-05-20T00:54:00.328Z,16.87
2023-05-20T00:56:27.269Z,16.79
2023-05-20T00:58:59.191Z,16.74
2023-05-20T01:01:27.796Z,16.69
2023-05-20T01:03:54.878Z,16.69
2023-05-20T01:06:23.629Z,16.67
2023-05-20T01:08:50.862Z,16.63
2023-05-20T01:11:30.759Z,16.60
2023-05-20T01:13:59.938Z,16.55
2023-05-20T01:16:27.274Z,16.52
2023-05-20T01:19:00.794Z,16.51
2023-05-20T01:21:30.242Z,16.51
2023-05-20T01:23:57.110Z,16.53
2023-05-20T01:26:26.784Z,16.54
2023-05-20T01:28:53.695Z,16.54
2023-05-20T01:31:24.112Z,16.53
2023-05-20T01:33:53.890Z,16.51
2023-05-20T01:36:21.100Z,16.46
2023-05-20T01:38:48.924Z,16.45
2023-05-20T01:41:16.339Z,16.44
2023-05-20T01:43:43.773Z,16.41
2023-05-20T01:46:10.829Z,16.38
2023-05-20T01:48:37.958Z,16.37
2023-05-20T01:51:06.669Z,16.33
2023-05-20T01:53:33.539Z,16.29
2023-05-20T01:56:00.470Z,16.26
2023-05-20T01:58:28.649Z,16.21
2023-05-20T02:00:55.670Z,16.15
2023-05-20T02:03:28.192Z,16.10
2023-05-20T02:05:55.460Z,16.05
2023-05-20T02:08:23.498Z,16.00
2023-05-20T02:10:50.730Z,15.97
2023-05-20T02:13:22.689Z,15.99
2023-05-20T02:15:50.931Z,15.97
2023-05-20T02:18:18.194Z,15.95
2023-05-20T02:20:45.148Z,15.95
2023-05-20T02:23:12.079Z,15.95
2023-05-20T02:25:40.069Z,15.92
2023-05-20T02:28:10.541Z,15.89
2023-05-20T02:30:38.528Z,15.89
2023-05-20T02:33:06.476Z,15.93
2023-05-20T02:35:33.530Z,15.95
2023-05-20T02:38:00.826Z,15.93
2023-05-20T02:40:27.680Z,15.94
2023-05-20T02:42:54.491Z,15.96
2023-05-20T02:45:21.370Z,15.97
2023-05-20T02:47:48.374Z,15.96
2023-05-20T02:50:16.043Z,15.96
2023-05-20T02:52:45.328Z,15.94
2023-05-20T02:55:12.427Z,15.95
2023-05-20T02:57:40.219Z,15.95
2023-05-20T03:00:12.760Z,15.96
2023-05-20T03:02:40.744Z,15.94
2023-05-20T03:05:08.184Z,15.92
2023-05-20T03:07:36.789Z,15.89
2023-05-20T03:10:07.545Z,15.88
2023-05-20T03:12:35.131Z,15.93
2023-05-20T03:15:02.046Z,16.01
2023-05-20T03:17:29.733Z,16.08
2023-05-20T03:19:57.013Z,16.12
2023-05-20T03:22:24.058Z,16.19
2023-05-20T03:24:52.305Z,16.23
2023-05-20T03:27:19.444Z,16.29
2023-05-20T03:29:47.717Z,16.38
2023-05-20T03:32:15.169Z,16.45
2023-05-20T03:34:47.224Z,16.51
2023-05-20T03:37:15.036Z,16.58
2023-05-20T03:39:41.949Z,16.63
2023-05-20T03:42:09.273Z,16.70
2023-05-20T03:44:36.855Z,16.76
2023-05-20T03:47:03.855Z,16.79
2023-05-20T03:49:30.980Z,16.84
2023-05-20T03:51:58.876Z,16.88
2023-05-20T03:54:27.574Z,16.93
2023-05-20T03:56:54.509Z,16.97
2023-05-20T03:59:21.834Z,17.00
2023-05-20T04:01:48.842Z,17.04
2023-05-20T04:04:15.959Z,17.12
2023-05-20T04:06:43.412Z,17.20
2023-05-20T04:09:10.723Z,17.26
2023-05-20T04:11:37.679Z,17.30
2023-05-20T04:14:04.964Z,17.35
2023-05-20T04:16:33.002Z,17.41
2023-05-20T04:19:01.010Z,17.49
2023-05-20T04:21:28.049Z,17.55
2023-05-20T04:23:55.214Z,17.58
2023-05-20T04:26:28.926Z,17.63
2023-05-20T04:28:58.612Z,17.70
2023-05-20T04:31:26.483Z,17.80
2023-05-20T04:33:54.379Z,17.88
2023-05-20T04:36:22.543Z,17.97
2023-05-20T04:38:55.527Z,18.05
2023-05-20T04:41:23.550Z,18.12
2023-05-20T04:43:51.223Z,18.21
2023-05-20T04:46:25.171Z,18.28
2023-05-20T04:48:53.350Z,18.35
2023-05-20T04:51:20.178Z,18.41
2023-05-20T04:53:47.684Z,18.48
2023-05-20T04:56:14.926Z,18.55
2023-05-20T04:58:42.797Z,18.63
2023-05-20T05:01:09.916Z,18.70
2023-05-20T05:03:37.055Z,18.78
2023-05-20T05:06:04.814Z,18.82
2023-05-20T05:08:32.518Z,18.91
2023-05-20T05:10:59.823Z,19.03
2023-05-20T05:13:26.892Z,19.13
2023-05-20T05:16:01.179Z,19.22
2023-05-20T05:18:29.436Z,19.31
2023-05-20T05:21:01.352Z,19.42
2023-05-20T05:23:28.988Z,19.50
2023-05-20T05:25:56.846Z,19.62
2023-05-20T05:28:24.297Z,19.72
2023-05-20T05:30:53.756Z,19.82
2023-05-20T05:33:20.941Z,19.91
2023-05-20T05:35:53.592Z,20.00
2023-05-20T05:38:21.941Z,20.10
2023-05-20T05:40:48.939Z,20.21
2023-05-20T05:43:16.608Z,20.33
2023-05-20T05:45:44.245Z,20.44
2023-05-20T05:48:11.638Z,20.55
2023-05-20T05:50:44.761Z,20.64
2023-05-20T05:53:12.235Z,20.72
2023-05-20T05:55:40.038Z,20.83
2023-05-20T05:58:07.659Z,20.93
2023-05-20T06:00:34.864Z,21.02
2023-05-20T06:03:02.194Z,21.14
2023-05-20T06:05:33.714Z,21.26
2023-05-20T06:08:01.205Z,21.34
2023-05-20T06:10:28.062Z,21.41
2023-05-20T06:12:57.449Z,21.49
2023-05-20T06:15:25.634Z,21.56
2023-05-20T06:17:52.778Z,21.62
2023-05-20T06:20:20.526Z,21.68
2023-05-20T06:22:47.790Z,21.79
2023-05-20T06:25:14.785Z,21.91
2023-05-20T06:27:42.278Z,21.97
2023-05-20T06:30:11.990Z,22.08
2023-05-20T06:32:40.665Z,22.20
2023-05-20T06:35:08.103Z,22.32
2023-05-20T06:37:36.417Z,22.40
2023-05-20T06:40:04.866Z,22.49
2023-05-20T06:42:37.683Z,22.57
2023-05-20T06:45:06.269Z,22.71
2023-05-20T06:47:41.869Z,22.83
2023-05-20T06:50:10.467Z,22.96
2023-05-20T06:52:37.628Z,23.05
2023-05-20T06:55:05.907Z,23.14
2023-05-20T06:57:34.187Z,23.26
2023-05-20T07:00:07.462Z,23.38
2023-05-20T07:02:39.963Z,23.51
2023-05-20T07:05:07.288Z,23.63
2023-05-20T07:07:34.512Z,23.71
2023-05-20T07:10:01.812Z,23.76
2023-05-20T07:12:28.912Z,23.90
2023-05-20T07:15:00.958Z,23.96
2023-05-20T07:17:29.060Z,24.04
2023-05-20T07:19:56.728Z,24.17
2023-05-20T07:22:23.675Z,24.28
2023-05-20T07:24:58.996Z,24.42
2023-05-20T07:27:26.474Z,24.56
2023-05-20T07:29:54.411Z,24.68
2023-05-20T07:32:26.662Z,24.76
2023-05-20T07:34:53.578Z,24.84
2023-05-20T07:37:20.525Z,24.95
2023-05-20T07:39:47.742Z,25.02
2023-05-20T07:42:14.587Z,25.13
2023-05-20T07:44:44.996Z,25.25
2023-05-20T07:47:13.643Z,25.38
2023-05-20T07:49:41.328Z,25.52
2023-05-20T07:52:08.325Z,25.63
2023-05-20T07:54:36.224Z,25.78
2023-05-20T07:57:03.461Z,25.95
2023-05-20T07:59:30.745Z,26.10
2023-05-20T08:01:58.722Z,26.23
2023-05-20T08:04:26.655Z,26.39
2023-05-20T08:06:54.657Z,26.56
2023-05-20T08:09:28.364Z,26.69
2023-05-20T08:11:55.997Z,26.85
2023-05-20T08:14:23.324Z,27.01
2023-05-20T08:16:55.991Z,27.16
2023-05-20T08:19:25.252Z,27.34
2023-05-20T08:21:52.882Z,27.48
2023-05-20T08:24:19.880Z,27.63
2023-05-20T08:26:47.009Z,27.78
2023-05-20T08:29:14.406Z,27.85
2023-05-20T08:31:41.809Z,27.92
2023-05-20T08:34:09.090Z,28.05
2023-05-20T08:36:36.482Z,28.26
2023-05-20T08:39:04.125Z,28.48
2023-05-20T08:41:31.121Z,28.65
2023-05-20T08:43:59.104Z,28.79
2023-05-20T08:46:26.154Z,28.89
2023-05-20T08:48:54.609Z,29.09
2023-05-20T08:51:27.059Z,29.35
2023-05-20T08:53:54.076Z,29.64
2023-05-20T08:56:21.492Z,29.88
2023-05-20T08:58:48.675Z,30.11
2023-05-20T09:01:16.390Z,30.35
2023-05-20T09:03:44.533Z,30.47
2023-05-20T09:06:17.468Z,30.80
2023-05-20T09:08:44.305Z,31.22
2023-05-20T09:11:11.813Z,31.55
2023-05-20T09:13:44.103Z,32.01
2023-05-20T09:16:11.439Z,32.35
2023-05-20T09:18:39.825Z,32.78
2023-05-20T09:21:06.996Z,33.12
2023-05-20T09:23:37.099Z,33.64
2023-05-20T09:26:04.054Z,34.14
2023-05-20T09:28:37.039Z,34.56
2023-05-20T09:31:05.077Z,34.87
2023-05-20T09:33:35.182Z,35.26
2023-05-20T09:36:07.643Z,35.61
2023-05-20T09:38:39.068Z,35.86
2023-05-20T09:41:08.717Z,36.03
2023-05-20T09:43:36.791Z,36.36
2023-05-20T09:46:03.857Z,36.84
2023-05-20T09:48:34.181Z,37.35
2023-05-20T09:51:02.103Z,37.46
2023-05-20T09:53:34.635Z,37.15
2023-05-20T09:56:02.088Z,36.98
2023-05-20T09:58:29.780Z,37.18
2023-05-20T10:00:56.961Z,37.56
2023-05-20T10:03:24.618Z,37.81
2023-05-20T10:06:10.236Z,38.21
2023-05-20T10:08:41.154Z,38.70
2023-05-20T10:11:33.185Z,39.10
2023-05-20T10:14:39.176Z,39.33
2023-05-20T10:17:11.655Z,38.83
2023-05-20T10:19:38.817Z,38.28
2023-05-20T10:22:07.931Z,37.79
2023-05-20T10:24:58.583Z,37.21
2023-05-20T10:27:25.425Z,37.28
2023-05-20T10:29:56.907Z,37.64
2023-05-20T10:32:31.912Z,38.03
2023-05-20T10:35:04.544Z,38.41
2023-05-20T10:37:41.885Z,38.85
2023-05-20T10:40:13.023Z,38.98
2023-05-20T10:42:47.684Z,38.72
2023-05-20T10:45:28.181Z,39.00
2023-05-20T10:48:04.070Z,39.12
2023-05-20T10:50:35.686Z,39.59
2023-05-20T10:53:07.024Z,40.05
2023-05-20T10:55:38.082Z,40.03
2023-05-20T10:58:05.620Z,39.55
2023-05-20T11:00:37.152Z,38.93
2023-05-20T11:03:05.335Z,38.53
2023-05-20T11:05:32.535Z,38.50
2023-05-20T11:08:07.935Z,38.96
2023-05-20T11:10:38.229Z,39.37
2023-05-20T11:13:12.078Z,39.74
2023-05-20T11:15:44.224Z,40.08
2023-05-20T11:18:14.396Z,40.18
2023-05-20T11:20:43.404Z,40.38
2023-05-20T11:23:14.328Z,40.62
2023-05-20T11:25:41.546Z,40.26
2023-05-20T11:28:15.003Z,39.48
2023-05-20T11:30:42.608Z,38.65
2023-05-20T11:33:12.139Z,37.85
2023-05-20T11:35:46.974Z,37.85
2023-05-20T11:38:14.766Z,38.37
2023-05-20T11:40:55.175Z,38.88
2023-05-20T11:43:23.186Z,39.40
2023-05-20T11:45:55.451Z,39.47
2023-05-20T11:48:23.220Z,39.53
2023-05-20T11:50:55.828Z,39.89
2023-05-20T11:53:28.734Z,40.36
2023-05-20T11:55:57.166Z,40.84
2023-05-20T11:58:26.038Z,41.19
2023-05-20T12:00:59.024Z,41.38
2023-05-20T12:03:33.229Z,41.51
2023-05-20T12:06:01.879Z,41.31
2023-05-20T12:08:29.196Z,40.97
2023-05-20T12:10:56.776Z,40.38
2023-05-20T12:13:24.416Z,39.96
2023-05-20T12:15:51.355Z,39.98
2023-05-20T12:18:18.601Z,40.15
2023-05-20T12:20:45.608Z,40.46
2023-05-20T12:23:12.648Z,40.68
2023-05-20T12:25:39.852Z,40.72
2023-05-20T12:28:07.684Z,40.67
2023-05-20T12:30:35.352Z,40.62
2023-05-20T12:33:03.209Z,40.77
2023-05-20T12:35:39.015Z,40.84
2023-05-20T12:38:06.756Z,40.88
2023-05-20T12:40:35.614Z,40.85
2023-05-20T12:43:08.338Z,40.76
2023-05-20T12:45:35.741Z,40.62
2023-05-20T12:48:03.413Z,40.52
2023-05-20T12:50:37.335Z,40.48
2023-05-20T12:53:05.008Z,40.59
2023-05-20T12:55:32.142Z,40.71
2023-05-20T12:57:59.285Z,40.72
2023-05-20T13:00:26.218Z,40.84
2023-05-20T13:02:54.083Z,40.97
2023-05-20T13:05:26.389Z,41.03
2023-05-20T13:07:53.367Z,41.13
2023-05-20T13:10:20.379Z,41.16
2023-05-20T13:12:47.736Z,41.07
2023-05-20T13:15:15.575Z,40.97
2023-05-20T13:17:42.751Z,40.93
2023-05-20T13:20:10.683Z,40.89
2023-05-20T13:22:37.754Z,40.86
2023-05-20T13:25:05.074Z,40.95
2023-05-20T13:27:32.354Z,41.02
2023-05-20T13:30:01.338Z,41.12
2023-05-20T13:32:29.309Z,41.09
2023-05-20T13:34:56.618Z,41.03
2023-05-20T13:37:23.546Z,40.89
2023-05-20T13:39:50.819Z,40.67
2023-05-20T13:42:17.936Z,40.51
2023-05-20T13:44:45.238Z,40.02
2023-05-20T13:47:12.244Z,39.44
2023-05-20T13:49:39.429Z,38.87
2023-05-20T13:52:09.006Z,38.62
2023-05-20T13:54:35.871Z,38.48
2023-05-20T13:57:07.311Z,38.49
2023-05-20T13:59:34.704Z,38.48
2023-05-20T14:02:02.621Z,38.34
2023-05-20T14:04:31.282Z,38.09
2023-05-20T14:06:59.822Z,37.76
2023-05-20T14:09:26.727Z,37.52
2023-05-20T14:11:53.946Z,37.28
2023-05-20T14:14:20.967Z,37.06
2023-05-20T14:16:48.390Z,36.76
2023-05-20T14:19:15.635Z,36.52
2023-05-20T14:21:42.567Z,36.22
2023-05-20T14:24:09.416Z,35.96
2023-05-20T14:26:36.594Z,35.83
2023-05-20T14:29:08.565Z,35.64
2023-05-20T14:31:38.019Z,35.37
2023-05-20T14:34:04.904Z,35.19
2023-05-20T14:36:32.189Z,35.00
2023-05-20T14:38:59.131Z,34.89
2023-05-20T14:41:26.037Z,34.66
2023-05-20T14:43:53.097Z,34.34
2023-05-20T14:46:20.559Z,34.09
2023-05-20T14:48:47.639Z,33.87
2023-05-20T14:51:19.704Z,33.62
2023-05-20T14:53:46.775Z,33.31
2023-05-20T14:56:18.990Z,33.02
2023-05-20T14:58:46.093Z,32.75
2023-05-20T15:01:13.253Z,32.51
2023-05-20T15:03:40.519Z,32.33
2023-05-20T15:06:07.468Z,32.17
2023-05-20T15:08:34.483Z,32.07
2023-05-20T15:11:01.493Z,31.99
2023-05-20T15:13:29.783Z,31.93
2023-05-20T15:15:56.660Z,31.94
2023-05-20T15:18:24.033Z,31.93
2023-05-20T15:20:51.466Z,31.86
2023-05-20T15:23:18.524Z,31.79
2023-05-20T15:25:45.440Z,31.75
2023-05-20T15:28:12.903Z,31.67
2023-05-20T15:30:40.033Z,31.63
2023-05-20T15:33:07.229Z,31.62
2023-05-20T15:35:34.234Z,31.61
2023-05-20T15:38:01.539Z,31.56
2023-05-20T15:40:28.707Z,31.47
2023-05-20T15:42:56.729Z,31.45
2023-05-20T15:45:23.558Z,31.39
2023-05-20T15:47:50.714Z,31.30
2023-05-20T15:50:18.016Z,31.17
2023-05-20T15:52:45.073Z,31.03
2023-05-20T15:55:12.168Z,30.91
2023-05-20T15:57:39.117Z,30.72
2023-05-20T16:00:09.940Z,30.55
2023-05-20T16:02:38.082Z,30.36
2023-05-20T16:05:11.304Z,30.21
2023-05-20T16:07:38.264Z,30.09
2023-05-20T16:10:06.348Z,29.86
2023-05-20T16:12:38.883Z,29.64
2023-05-20T16:15:06.928Z,29.48
2023-05-20T16:17:34.205Z,29.35
2023-05-20T16:20:01.327Z,29.19
2023-05-20T16:22:28.681Z,29.01
2023-05-20T16:24:55.689Z,28.86
2023-05-20T16:27:23.185Z,28.69
2023-05-20T16:29:50.142Z,28.48
2023-05-20T16:32:16.932Z,28.27
2023-05-20T16:34:43.870Z,28.11
2023-05-20T16:37:11.247Z,27.97
2023-05-20T16:39:38.133Z,27.84
2023-05-20T16:42:05.390Z,27.71
2023-05-20T16:44:37.966Z,27.57
2023-05-20T16:47:05.925Z,27.46
2023-05-20T16:49:33.560Z,27.35
2023-05-20T16:52:00.646Z,27.22
2023-05-20T16:54:27.601Z,27.07
2023-05-20T16:56:55.947Z,26.95
2023-05-20T16:59:34.445Z,26.85
2023-05-20T17:02:01.363Z,26.72
2023-05-20T17:04:28.625Z,26.60
2023-05-20T17:06:56.494Z,26.52
2023-05-20T17:09:23.809Z,26.42
2023-05-20T17:11:52.419Z,26.33
2023-05-20T17:14:19.343Z,26.22
2023-05-20T17:16:46.383Z,26.12
2023-05-20T17:19:13.350Z,26.01
2023-05-20T17:21:41.197Z,25.93
2023-05-20T17:24:08.195Z,25.86
2023-05-20T17:26:35.375Z,25.78
2023-05-20T17:29:07.867Z,25.68
2023-05-20T17:31:34.916Z,25.61
2023-05-20T17:34:02.061Z,25.55
2023-05-20T17:36:29.447Z,25.48
2023-05-20T17:38:56.695Z,25.42
2023-05-20T17:41:23.730Z,25.34
2023-05-20T17:43:51.038Z,25.24
2023-05-20T17:46:18.340Z,25.14
2023-05-20T17:48:45.435Z,25.07
2023-05-20T17:51:12.668Z,25.03
2023-05-20T17:53:39.852Z,24.95
2023-05-20T17:56:08.785Z,24.85
2023-05-20T17:58:42.062Z,24.74
2023-05-20T18:01:09.244Z,24.65
2023-05-20T18:03:36.915Z,24.57
2023-05-20T18:06:05.670Z,24.46
2023-05-20T18:08:33.319Z,24.32
2023-05-20T18:11:00.599Z,24.21
2023-05-20T18:13:27.711Z,24.13
2023-05-20T18:15:54.955Z,24.02
2023-05-20T18:18:22.038Z,23.93
2023-05-20T18:20:48.988Z,23.83
2023-05-20T18:23:15.912Z,23.74
2023-05-20T18:25:43.679Z,23.64
2023-05-20T18:28:12.425Z,23.53
2023-05-20T18:30:39.685Z,23.46
2023-05-20T18:33:06.841Z,23.38
2023-05-20T18:35:38.929Z,23.28
2023-05-20T18:38:06.585Z,23.19
2023-05-20T18:40:33.926Z,23.13
2023-05-20T18:43:01.227Z,23.07
2023-05-20T18:45:29.289Z,22.99
2023-05-20T18:47:58.909Z,22.92
2023-05-20T18:50:26.107Z,22.87
2023-05-20T18:52:53.261Z,22.82
2023-05-20T18:55:20.422Z,22.76
2023-05-20T18:57:47.351Z,22.72
2023-05-20T19:00:19.770Z,22.67
2023-05-20T19:02:47.113Z,22.62
2023-05-20T19:05:14.270Z,22.56
2023-05-20T19:07:41.360Z,22.53
2023-05-20T19:10:08.754Z,22.51
2023-05-20T19:12:36.061Z,22.47
2023-05-20T19:15:04.628Z,22.43
2023-05-20T19:17:32.234Z,22.39
2023-05-20T19:19:59.275Z,22.33
2023-05-20T19:22:26.400Z,22.30
2023-05-20T19:24:53.552Z,22.26
2023-05-20T19:27:21.212Z,22.21
2023-05-20T19:29:48.353Z,22.16
2023-05-20T19:32:20.404Z,22.12
2023-05-20T19:34:47.624Z,22.12
2023-05-20T19:37:14.564Z,22.13
2023-05-20T19:39:42.759Z,22.11
2023-05-20T19:42:14.922Z,22.08
2023-05-20T19:44:41.885Z,22.03
2023-05-20T19:47:08.794Z,21.99
2023-05-20T19:49:36.078Z,21.98
2023-05-20T19:52:03.164Z,21.96
2023-05-20T19:54:30.395Z,21.90
2023-05-20T19:56:57.369Z,21.84
2023-05-20T19:59:24.346Z,21.78
2023-05-20T20:01:51.809Z,21.71
2023-05-20T20:04:19.161Z,21.68
2023-05-20T20:06:47.443Z,21.66
2023-05-20T20:09:14.777Z,21.62
2023-05-20T20:11:52.118Z,21.57
2023-05-20T20:14:19.674Z,21.53
2023-05-20T20:16:48.209Z,21.47
2023-05-20T20:19:18.125Z,21.42
2023-05-20T20:21:46.005Z,21.37
2023-05-20T20:24:13.002Z,21.32
2023-05-20T20:26:40.133Z,21.26
2023-05-20T20:29:07.592Z,21.20
2023-05-20T20:31:35.374Z,21.17
2023-05-20T20:34:02.346Z,21.15
2023-05-20T20:36:34.437Z,21.13
2023-05-20T20:39:04.469Z,21.08
2023-05-20T20:41:32.499Z,21.03
2023-05-20T20:44:02.955Z,20.97
2023-05-20T20:46:30.640Z,20.94
2023-05-20T20:48:57.506Z,20.94
2023-05-20T20:51:24.587Z,20.93
2023-05-20T20:53:56.753Z,20.89
2023-05-20T20:56:25.178Z,20.83
2023-05-20T20:58:53.792Z,20.79
2023-05-20T21:01:26.048Z,20.77
2023-05-20T21:03:53.960Z,20.76
2023-05-20T21:06:20.985Z,20.71
2023-05-20T21:08:47.943Z,20.65
2023-05-20T21:11:15.283Z,20.62
2023-05-20T21:13:42.408Z,20.59
2023-05-20T21:16:15.159Z,20.55
2023-05-20T21:18:42.771Z,20.48
2023-05-20T21:21:13.519Z,20.44
2023-05-20T21:23:41.169Z,20.40
2023-05-20T21:26:08.448Z,20.34
2023-05-20T21:28:35.652Z,20.30
2023-05-20T21:31:02.910Z,20.29
2023-05-20T21:33:30.582Z,20.24
2023-05-20T21:35:57.737Z,20.20
2023-05-20T21:38:24.667Z,20.15
2023-05-20T21:40:51.574Z,20.10
2023-05-20T21:43:18.889Z,20.07
2023-05-20T21:45:46.184Z,20.05
2023-05-20T21:48:13.196Z,20.06
2023-05-20T21:50:45.400Z,20.01
2023-05-20T21:53:12.424Z,19.96
2023-05-20T21:55:39.286Z,19.90
2023-05-20T21:58:06.157Z,19.86
2023-05-20T22:00:33.122Z,19.85
2023-05-20T22:03:00.310Z,19.84
2023-05-20T22:05:27.792Z,19.84
2023-05-20T22:07:54.979Z,19.79
2023-05-20T22:10:23.345Z,19.77
2023-05-20T22:12:50.572Z,19.73
2023-05-20T22:15:17.557Z,19.69
2023-05-20T22:17:46.992Z,19.67
2023-05-20T22:20:14.620Z,19.61
2023-05-20T22:22:41.595Z,19.58
2023-05-20T22:25:09.130Z,19.57
2023-05-20T22:27:36.430Z,19.56
2023-05-20T22:30:07.816Z,19.54
2023-05-20T22:32:35.367Z,19.51
2023-05-20T22:35:03.178Z,19.45
2023-05-20T22:37:35.814Z,19.42
2023-05-20T22:40:03.732Z,19.41
2023-05-20T22:42:30.899Z,19.40
2023-05-20T22:44:57.893Z,19.38
2023-05-20T22:47:25.061Z,19.36
2023-05-20T22:49:52.014Z,19.35
2023-05-20T22:52:21.530Z,19.37
2023-05-20T22:54:55.627Z,19.39
2023-05-20T22:57:27.661Z,19.38
2023-05-20T22:59:55.173Z,19.38
2023-05-20T23:02:29.991Z,19.37
2023-05-20T23:04:57.205Z,19.36
2023-05-20T23:07:24.089Z,19.35
2023-05-20T23:09:51.016Z,19.32
2023-05-20T23:12:18.171Z,19.34
2023-05-20T23:14:45.755Z,19.38
2023-05-20T23:17:12.667Z,19.38
2023-05-20T23:19:40.090Z,19.35
2023-05-20T23:22:07.064Z,19.31
2023-05-20T23:24:36.422Z,19.29
2023-05-20T23:27:04.163Z,19.27
2023-05-20T23:29:32.001Z,19.25
2023-05-20T23:31:58.877Z,19.24
2023-05-20T23:34:27.012Z,19.22
2023-05-20T23:36:53.887Z,19.19
2023-05-20T23:39:20.820Z,19.19
2023-05-20T23:41:47.974Z,19.15
2023-05-20T23:44:15.236Z,19.12
2023-05-20T23:46:47.250Z,19.11
2023-05-20T23:49:17.818Z,19.09
2023-05-20T23:51:44.656Z,19.03
2023-05-20T23:54:20.996Z,19.00
2023-05-20T23:56:48.269Z,18.98
2023-05-20T23:59:15.075Z,18.92
